sensor_id;sensor_type;location;lat;lon;timestamp;temperature;humidity
9699;DHT22;10089;47.876;8.346;2022-12-18T00:02:05;-7.00;1.00
9699;DHT22;10089;47.876;8.346;2022-12-18T00:04:31;-7.00;12.20
9699;DHT22;10089;47.876;8.346;2022-12-18T00:06:57;-6.60;33.70
9699;DHT22;10089;47.876;8.346;2022-12-18T00:09:22;-6.90;35.70
9699;DHT22;10089;47.876;8.346;2022-12-18T00:11:48;-7.10;71.10
9699;DHT22;10089;47.876;8.346;2022-12-18T00:14:14;-6.90;85.00
9699;DHT22;10089;47.876;8.346;2022-12-18T00:16:44;-6.90;69.80
9699;DHT22;10089;47.876;8.346;2022-12-18T00:19:11;-6.90;58.80
9699;DHT22;10089;47.876;8.346;2022-12-18T00:21:41;-6.80;77.60
9699;DHT22;10089;47.876;8.346;2022-12-18T00:24:07;-6.80;95.80
9699;DHT22;10089;47.876;8.346;2022-12-18T00:26:34;-6.80;99.90
9699;DHT22;10089;47.876;8.346;2022-12-18T00:29:04;-6.80;99.90
9699;DHT22;10089;47.876;8.346;2022-12-18T00:31:30;-6.80;99.90
9699;DHT22;10089;47.876;8.346;2022-12-18T00:33:57;-6.70;99.90
9699;DHT22;10089;47.876;8.346;2022-12-18T00:36:25;-6.70;99.90
9699;DHT22;10089;47.876;8.346;2022-12-18T00:38:54;-6.00;99.90
9699;DHT22;10089;47.876;8.346;2022-12-18T00:41:20;-6.40;99.90
9699;DHT22;10089;47.876;8.346;2022-12-18T00:44:06;-6.50;99.90
9699;DHT22;10089;47.876;8.346;2022-12-18T00:46:32;-6.00;99.90
9699;DHT22;10089;47.876;8.346;2022-12-18T00:48:58;-5.90;99.90
9699;DHT22;10089;47.876;8.346;2022-12-18T00:51:25;-5.70;99.90
9699;DHT22;10089;47.876;8.346;2022-12-18T00:53:52;-6.00;99.90
9699;DHT22;10089;47.876;8.346;2022-12-18T00:56:18;-6.10;99.90
9699;DHT22;10089;47.876;8.346;2022-12-18T00:58:43;-5.60;99.90
9699;DHT22;10089;47.876;8.346;2022-12-18T01:01:09;-5.80;99.90
9699;DHT22;10089;47.876;8.346;2022-12-18T01:03:35;-6.40;99.90
9699;DHT22;10089;47.876;8.346;2022-12-18T01:06:06;-6.20;99.90
9699;DHT22;10089;47.876;8.346;2022-12-18T01:08:33;-6.80;99.90
9699;DHT22;10089;47.876;8.346;2022-12-18T01:10:59;-6.20;99.90
9699;DHT22;10089;47.876;8.346;2022-12-18T01:13:24;-5.60;99.90
9699;DHT22;10089;47.876;8.346;2022-12-18T01:15:51;-6.80;99.90
9699;DHT22;10089;47.876;8.346;2022-12-18T01:18:16;-6.60;99.90
9699;DHT22;10089;47.876;8.346;2022-12-18T01:20:42;-6.50;99.90
9699;DHT22;10089;47.876;8.346;2022-12-18T01:23:08;-6.80;99.90
9699;DHT22;10089;47.876;8.346;2022-12-18T01:25:36;-6.70;99.90
9699;DHT22;10089;47.876;8.346;2022-12-18T01:28:02;-6.60;99.90
9699;DHT22;10089;47.876;8.346;2022-12-18T01:30:28;-6.50;99.90
9699;DHT22;10089;47.876;8.346;2022-12-18T01:32:54;-6.70;99.90
9699;DHT22;10089;47.876;8.346;2022-12-18T01:35:19;-6.70;99.90
9699;DHT22;10089;47.876;8.346;2022-12-18T01:37:45;-6.10;99.90
9699;DHT22;10089;47.876;8.346;2022-12-18T01:40:11;-6.70;99.90
9699;DHT22;10089;47.876;8.346;2022-12-18T01:42:38;-6.60;99.90
9699;DHT22;10089;47.876;8.346;2022-12-18T01:47:49;-6.30;99.90
9699;DHT22;10089;47.876;8.346;2022-12-18T01:50:19;-7.00;99.90
9699;DHT22;10089;47.876;8.346;2022-12-18T01:52:58;-6.30;99.90
9699;DHT22;10089;47.876;8.346;2022-12-18T01:55:28;-6.90;99.90
9699;DHT22;10089;47.876;8.346;2022-12-18T01:57:57;-5.20;99.90
9699;DHT22;10089;47.876;8.346;2022-12-18T02:00:25;-6.60;99.90
9699;DHT22;10089;47.876;8.346;2022-12-18T02:02:51;-6.70;99.90
9699;DHT22;10089;47.876;8.346;2022-12-18T02:08:10;-6.70;99.90
9699;DHT22;10089;47.876;8.346;2022-12-18T02:13:31;-6.80;99.90
9699;DHT22;10089;47.876;8.346;2022-12-18T02:18:50;-6.60;99.90
9699;DHT22;10089;47.876;8.346;2022-12-18T02:26:51;-6.50;99.90
9699;DHT22;10089;47.876;8.346;2022-12-18T02:29:24;-6.40;99.90
9699;DHT22;10089;47.876;8.346;2022-12-18T02:31:56;-6.40;99.90
9699;DHT22;10089;47.876;8.346;2022-12-18T02:34:26;-6.40;99.90
9699;DHT22;10089;47.876;8.346;2022-12-18T02:36:54;-5.30;99.90
9699;DHT22;10089;47.876;8.346;2022-12-18T02:39:23;-6.40;99.90
9699;DHT22;10089;47.876;8.346;2022-12-18T02:41:50;-6.20;99.90
9699;DHT22;10089;47.876;8.346;2022-12-18T02:44:16;-6.30;99.90
9699;DHT22;10089;47.876;8.346;2022-12-18T02:46:52;-6.20;99.90
9699;DHT22;10089;47.876;8.346;2022-12-18T02:49:24;-6.20;99.90
9699;DHT22;10089;47.876;8.346;2022-12-18T02:52:04;-6.20;99.90
9699;DHT22;10089;47.876;8.346;2022-12-18T02:57:45;-6.20;99.90
9699;DHT22;10089;47.876;8.346;2022-12-18T03:00:29;-6.20;99.90
9699;DHT22;10089;47.876;8.346;2022-12-18T03:03:03;-6.20;99.90
9699;DHT22;10089;47.876;8.346;2022-12-18T03:05:36;-6.20;99.90
9699;DHT22;10089;47.876;8.346;2022-12-18T03:08:07;-6.30;99.90
9699;DHT22;10089;47.876;8.346;2022-12-18T03:10:39;-6.20;99.90
9699;DHT22;10089;47.876;8.346;2022-12-18T03:13:09;-6.20;99.90
9699;DHT22;10089;47.876;8.346;2022-12-18T03:15:45;-6.20;99.90
9699;DHT22;10089;47.876;8.346;2022-12-18T03:18:46;-6.30;99.90
9699;DHT22;10089;47.876;8.346;2022-12-18T03:21:14;-6.20;99.90
9699;DHT22;10089;47.876;8.346;2022-12-18T03:23:47;-6.20;99.90
9699;DHT22;10089;47.876;8.346;2022-12-18T03:26:16;-6.20;99.90
9699;DHT22;10089;47.876;8.346;2022-12-18T03:28:51;-6.30;99.90
9699;DHT22;10089;47.876;8.346;2022-12-18T03:31:17;-6.30;99.90
9699;DHT22;10089;47.876;8.346;2022-12-18T03:33:51;-6.30;99.90
9699;DHT22;10089;47.876;8.346;2022-12-18T03:36:17;-6.30;99.90
9699;DHT22;10089;47.876;8.346;2022-12-18T03:38:43;-6.20;99.90
9699;DHT22;10089;47.876;8.346;2022-12-18T03:46:32;-6.30;99.90
9699;DHT22;10089;47.876;8.346;2022-12-18T03:49:09;-6.10;99.90
9699;DHT22;10089;47.876;8.346;2022-12-18T03:51:44;-6.20;99.90
9699;DHT22;10089;47.876;8.346;2022-12-18T03:54:13;-6.10;99.90
9699;DHT22;10089;47.876;8.346;2022-12-18T03:56:44;-5.90;99.90
9699;DHT22;10089;47.876;8.346;2022-12-18T03:59:14;-6.20;99.90
9699;DHT22;10089;47.876;8.346;2022-12-18T04:01:45;-6.30;99.90
9699;DHT22;10089;47.876;8.346;2022-12-18T04:04:13;-6.20;99.90
9699;DHT22;10089;47.876;8.346;2022-12-18T04:06:41;-6.20;99.90
9699;DHT22;10089;47.876;8.346;2022-12-18T04:09:07;-6.20;99.90
9699;DHT22;10089;47.876;8.346;2022-12-18T04:11:34;-6.20;99.90
9699;DHT22;10089;47.876;8.346;2022-12-18T04:14:00;-6.10;99.90
9699;DHT22;10089;47.876;8.346;2022-12-18T04:16:26;-5.90;99.90
9699;DHT22;10089;47.876;8.346;2022-12-18T04:18:53;-6.10;99.90
9699;DHT22;10089;47.876;8.346;2022-12-18T04:21:19;-6.20;99.90
9699;DHT22;10089;47.876;8.346;2022-12-18T04:23:46;-5.90;99.90
9699;DHT22;10089;47.876;8.346;2022-12-18T04:26:12;-6.20;99.90
9699;DHT22;10089;47.876;8.346;2022-12-18T04:28:37;-5.90;99.90
9699;DHT22;10089;47.876;8.346;2022-12-18T04:31:03;-6.10;99.90
9699;DHT22;10089;47.876;8.346;2022-12-18T04:33:29;-6.20;99.90
9699;DHT22;10089;47.876;8.346;2022-12-18T04:35:55;-6.00;99.90
9699;DHT22;10089;47.876;8.346;2022-12-18T04:38:20;-6.30;99.90
9699;DHT22;10089;47.876;8.346;2022-12-18T04:40:46;-6.30;99.90
9699;DHT22;10089;47.876;8.346;2022-12-18T04:43:12;-6.30;99.90
9699;DHT22;10089;47.876;8.346;2022-12-18T04:45:37;-6.30;99.90
9699;DHT22;10089;47.876;8.346;2022-12-18T04:48:03;-6.20;99.90
9699;DHT22;10089;47.876;8.346;2022-12-18T04:50:30;-6.30;99.90
9699;DHT22;10089;47.876;8.346;2022-12-18T04:52:56;-6.10;99.90
9699;DHT22;10089;47.876;8.346;2022-12-18T04:55:22;-6.30;99.90
9699;DHT22;10089;47.876;8.346;2022-12-18T04:57:49;-6.30;99.90
9699;DHT22;10089;47.876;8.346;2022-12-18T05:00:15;-6.20;99.90
9699;DHT22;10089;47.876;8.346;2022-12-18T05:02:41;-6.30;99.90
9699;DHT22;10089;47.876;8.346;2022-12-18T05:05:07;-6.20;99.90
9699;DHT22;10089;47.876;8.346;2022-12-18T05:07:33;-6.20;99.90
9699;DHT22;10089;47.876;8.346;2022-12-18T05:09:59;-6.30;99.90
9699;DHT22;10089;47.876;8.346;2022-12-18T05:12:25;-6.20;99.90
9699;DHT22;10089;47.876;8.346;2022-12-18T05:14:51;-6.20;99.90
9699;DHT22;10089;47.876;8.346;2022-12-18T05:17:17;-6.20;99.90
9699;DHT22;10089;47.876;8.346;2022-12-18T05:19:42;-6.10;99.90
9699;DHT22;10089;47.876;8.346;2022-12-18T05:22:09;-6.10;99.90
9699;DHT22;10089;47.876;8.346;2022-12-18T05:24:35;-6.10;99.90
9699;DHT22;10089;47.876;8.346;2022-12-18T05:27:01;-6.00;99.90
9699;DHT22;10089;47.876;8.346;2022-12-18T05:29:26;-6.00;99.90
9699;DHT22;10089;47.876;8.346;2022-12-18T05:31:52;-6.00;99.90
9699;DHT22;10089;47.876;8.346;2022-12-18T05:34:18;-6.00;99.90
9699;DHT22;10089;47.876;8.346;2022-12-18T05:36:43;-6.10;99.90
9699;DHT22;10089;47.876;8.346;2022-12-18T05:39:09;-6.10;99.90
9699;DHT22;10089;47.876;8.346;2022-12-18T05:41:35;-6.10;99.90
9699;DHT22;10089;47.876;8.346;2022-12-18T05:44:01;-6.00;99.90
9699;DHT22;10089;47.876;8.346;2022-12-18T05:46:26;-6.10;99.90
9699;DHT22;10089;47.876;8.346;2022-12-18T05:48:52;-6.10;99.90
9699;DHT22;10089;47.876;8.346;2022-12-18T05:54:59;-6.20;99.90
9699;DHT22;10089;47.876;8.346;2022-12-18T05:57:24;-6.10;99.90
9699;DHT22;10089;47.876;8.346;2022-12-18T05:59:50;-6.30;99.90
9699;DHT22;10089;47.876;8.346;2022-12-18T06:02:16;-6.10;99.90
9699;DHT22;10089;47.876;8.346;2022-12-18T06:04:42;-6.00;99.90
9699;DHT22;10089;47.876;8.346;2022-12-18T06:07:07;-6.30;99.90
9699;DHT22;10089;47.876;8.346;2022-12-18T06:09:33;-6.20;99.90
9699;DHT22;10089;47.876;8.346;2022-12-18T06:11:59;-6.30;99.90
9699;DHT22;10089;47.876;8.346;2022-12-18T06:14:25;-6.20;99.90
9699;DHT22;10089;47.876;8.346;2022-12-18T06:16:51;-6.20;99.90
9699;DHT22;10089;47.876;8.346;2022-12-18T06:19:17;-6.20;99.90
9699;DHT22;10089;47.876;8.346;2022-12-18T06:21:43;-6.20;99.90
9699;DHT22;10089;47.876;8.346;2022-12-18T06:24:09;-6.20;99.90
9699;DHT22;10089;47.876;8.346;2022-12-18T06:26:37;-6.20;99.90
9699;DHT22;10089;47.876;8.346;2022-12-18T06:29:04;-6.40;99.90
9699;DHT22;10089;47.876;8.346;2022-12-18T06:31:30;-6.20;99.90
9699;DHT22;10089;47.876;8.346;2022-12-18T06:33:56;-6.20;99.90
9699;DHT22;10089;47.876;8.346;2022-12-18T06:36:22;-6.20;99.90
9699;DHT22;10089;47.876;8.346;2022-12-18T06:38:47;-6.30;99.90
9699;DHT22;10089;47.876;8.346;2022-12-18T06:41:16;-6.30;99.90
9699;DHT22;10089;47.876;8.346;2022-12-18T06:43:42;-6.20;99.90
9699;DHT22;10089;47.876;8.346;2022-12-18T06:46:08;-6.20;99.90
9699;DHT22;10089;47.876;8.346;2022-12-18T06:48:34;-6.20;99.90
9699;DHT22;10089;47.876;8.346;2022-12-18T06:51:00;-6.20;99.90
9699;DHT22;10089;47.876;8.346;2022-12-18T06:53:26;-6.20;99.90
9699;DHT22;10089;47.876;8.346;2022-12-18T06:55:52;-6.20;99.90
9699;DHT22;10089;47.876;8.346;2022-12-18T06:58:18;-6.10;99.90
9699;DHT22;10089;47.876;8.346;2022-12-18T07:00:43;-6.20;99.90
9699;DHT22;10089;47.876;8.346;2022-12-18T07:03:10;-6.40;99.90
9699;DHT22;10089;47.876;8.346;2022-12-18T07:05:40;-6.30;99.90
9699;DHT22;10089;47.876;8.346;2022-12-18T07:08:06;-6.40;99.90
9699;DHT22;10089;47.876;8.346;2022-12-18T07:10:32;-6.50;99.90
9699;DHT22;10089;47.876;8.346;2022-12-18T07:12:57;-6.40;99.90
9699;DHT22;10089;47.876;8.346;2022-12-18T07:15:23;-6.20;99.90
9699;DHT22;10089;47.876;8.346;2022-12-18T07:17:49;-6.50;99.90
9699;DHT22;10089;47.876;8.346;2022-12-18T07:20:14;-6.40;99.90
9699;DHT22;10089;47.876;8.346;2022-12-18T07:22:40;-6.50;99.90
9699;DHT22;10089;47.876;8.346;2022-12-18T07:25:07;-6.40;99.90
9699;DHT22;10089;47.876;8.346;2022-12-18T07:27:33;-6.50;99.90
9699;DHT22;10089;47.876;8.346;2022-12-18T07:30:00;-6.50;99.90
9699;DHT22;10089;47.876;8.346;2022-12-18T07:32:26;-6.50;99.90
9699;DHT22;10089;47.876;8.346;2022-12-18T07:34:51;-6.00;99.90
9699;DHT22;10089;47.876;8.346;2022-12-18T07:37:17;-6.40;99.90
9699;DHT22;10089;47.876;8.346;2022-12-18T07:39:43;-6.40;99.90
9699;DHT22;10089;47.876;8.346;2022-12-18T07:42:08;-6.30;99.90
9699;DHT22;10089;47.876;8.346;2022-12-18T07:44:53;-6.30;99.90
9699;DHT22;10089;47.876;8.346;2022-12-18T07:47:18;-6.10;99.90
9699;DHT22;10089;47.876;8.346;2022-12-18T07:49:44;-6.30;99.90
9699;DHT22;10089;47.876;8.346;2022-12-18T07:52:10;-6.30;99.90
9699;DHT22;10089;47.876;8.346;2022-12-18T07:54:37;-6.30;99.90
9699;DHT22;10089;47.876;8.346;2022-12-18T07:57:04;-6.30;99.90
9699;DHT22;10089;47.876;8.346;2022-12-18T07:59:29;-6.40;99.90
9699;DHT22;10089;47.876;8.346;2022-12-18T08:01:55;-6.20;99.90
9699;DHT22;10089;47.876;8.346;2022-12-18T08:04:21;-6.40;99.90
9699;DHT22;10089;47.876;8.346;2022-12-18T08:06:46;-6.40;99.90
9699;DHT22;10089;47.876;8.346;2022-12-18T08:09:12;-6.30;99.90
9699;DHT22;10089;47.876;8.346;2022-12-18T13:49:44;-3.40;99.90
9699;DHT22;10089;47.876;8.346;2022-12-18T13:52:21;-3.20;99.90
9699;DHT22;10089;47.876;8.346;2022-12-18T13:54:51;-3.50;99.90
9699;DHT22;10089;47.876;8.346;2022-12-18T13:59:52;-3.70;99.90
9699;DHT22;10089;47.876;8.346;2022-12-18T14:02:26;-3.70;99.90
9699;DHT22;10089;47.876;8.346;2022-12-18T14:04:52;-3.30;99.90
9699;DHT22;10089;47.876;8.346;2022-12-18T14:07:23;-3.30;99.90
9699;DHT22;10089;47.876;8.346;2022-12-18T14:09:54;-3.60;99.90
9699;DHT22;10089;47.876;8.346;2022-12-18T14:12:25;-3.60;99.90
9699;DHT22;10089;47.876;8.346;2022-12-18T14:15:33;-3.60;99.90
9699;DHT22;10089;47.876;8.346;2022-12-18T14:18:24;-3.80;99.90
9699;DHT22;10089;47.876;8.346;2022-12-18T14:20:53;-4.00;99.90
9699;DHT22;10089;47.876;8.346;2022-12-18T14:25:54;-3.80;99.90
9699;DHT22;10089;47.876;8.346;2022-12-18T14:28:20;-3.70;99.90
9699;DHT22;10089;47.876;8.346;2022-12-18T14:30:50;-3.90;99.90
9699;DHT22;10089;47.876;8.346;2022-12-18T14:33:26;-3.80;99.90
9699;DHT22;10089;47.876;8.346;2022-12-18T14:36:04;-3.70;99.90
9699;DHT22;10089;47.876;8.346;2022-12-18T14:38:39;-3.50;99.90
9699;DHT22;10089;47.876;8.346;2022-12-18T14:41:16;-3.40;99.90
9699;DHT22;10089;47.876;8.346;2022-12-18T14:43:45;-3.50;99.90
9699;DHT22;10089;47.876;8.346;2022-12-18T14:46:34;-3.60;99.90
9699;DHT22;10089;47.876;8.346;2022-12-18T14:49:47;-3.60;99.90
9699;DHT22;10089;47.876;8.346;2022-12-18T14:51:51;-3.70;99.90
9699;DHT22;10089;47.876;8.346;2022-12-18T14:54:19;-3.80;99.90
9699;DHT22;10089;47.876;8.346;2022-12-18T14:56:53;-3.90;99.90
9699;DHT22;10089;47.876;8.346;2022-12-18T14:59:24;-4.10;99.90
9699;DHT22;10089;47.876;8.346;2022-12-18T15:04:41;-4.20;99.90
9699;DHT22;10089;47.876;8.346;2022-12-18T15:07:20;-4.20;99.90
9699;DHT22;10089;47.876;8.346;2022-12-18T15:10:19;-4.30;99.90
9699;DHT22;10089;47.876;8.346;2022-12-18T15:13:05;-4.50;99.90
9699;DHT22;10089;47.876;8.346;2022-12-18T15:20:56;-4.30;99.90
9699;DHT22;10089;47.876;8.346;2022-12-18T15:26:10;-4.40;99.90
9699;DHT22;10089;47.876;8.346;2022-12-18T15:33:40;-4.60;99.90
9699;DHT22;10089;47.876;8.346;2022-12-18T15:36:14;-4.50;99.90
9699;DHT22;10089;47.876;8.346;2022-12-18T15:38:40;-4.60;99.90
9699;DHT22;10089;47.876;8.346;2022-12-18T15:41:13;-4.50;99.90
9699;DHT22;10089;47.876;8.346;2022-12-18T15:43:39;-4.60;99.90
9699;DHT22;10089;47.876;8.346;2022-12-18T15:46:19;-4.60;99.90
9699;DHT22;10089;47.876;8.346;2022-12-18T15:48:48;-4.60;99.90
9699;DHT22;10089;47.876;8.346;2022-12-18T15:53:42;-4.50;99.90
9699;DHT22;10089;47.876;8.346;2022-12-18T15:56:13;-4.50;99.90
9699;DHT22;10089;47.876;8.346;2022-12-18T15:58:58;-4.40;99.90
9699;DHT22;10089;47.876;8.346;2022-12-18T16:01:26;-4.40;99.90
9699;DHT22;10089;47.876;8.346;2022-12-18T16:03:52;-4.40;99.90
9699;DHT22;10089;47.876;8.346;2022-12-18T16:06:19;-4.40;99.90
9699;DHT22;10089;47.876;8.346;2022-12-18T16:08:44;-4.50;99.90
9699;DHT22;10089;47.876;8.346;2022-12-18T16:11:27;-4.40;99.90
9699;DHT22;10089;47.876;8.346;2022-12-18T16:14:22;-4.60;99.90
9699;DHT22;10089;47.876;8.346;2022-12-18T16:16:54;-4.50;99.90
9699;DHT22;10089;47.876;8.346;2022-12-18T16:19:20;-4.50;99.90
9699;DHT22;10089;47.876;8.346;2022-12-18T16:21:47;-4.40;99.90
9699;DHT22;10089;47.876;8.346;2022-12-18T16:24:18;-4.30;99.90
9699;DHT22;10089;47.876;8.346;2022-12-18T16:26:44;-4.40;99.90
9699;DHT22;10089;47.876;8.346;2022-12-18T16:29:10;-4.50;99.90
9699;DHT22;10089;47.876;8.346;2022-12-18T16:31:36;-4.40;99.90
9699;DHT22;10089;47.876;8.346;2022-12-18T16:34:20;-4.40;99.90
9699;DHT22;10089;47.876;8.346;2022-12-18T16:36:52;-4.50;99.90
9699;DHT22;10089;47.876;8.346;2022-12-18T16:39:19;-4.40;99.90
9699;DHT22;10089;47.876;8.346;2022-12-18T16:41:45;-4.50;99.90
9699;DHT22;10089;47.876;8.346;2022-12-18T16:44:12;-4.50;99.90
9699;DHT22;10089;47.876;8.346;2022-12-18T16:46:38;-4.60;99.90
9699;DHT22;10089;47.876;8.346;2022-12-18T16:49:04;-4.60;99.90
9699;DHT22;10089;47.876;8.346;2022-12-18T16:51:55;-4.50;99.90
9699;DHT22;10089;47.876;8.346;2022-12-18T16:54:21;-4.50;99.90
9699;DHT22;10089;47.876;8.346;2022-12-18T16:56:47;-4.50;99.90
9699;DHT22;10089;47.876;8.346;2022-12-18T16:59:15;-4.50;99.90
9699;DHT22;10089;47.876;8.346;2022-12-18T17:01:42;-4.50;99.90
9699;DHT22;10089;47.876;8.346;2022-12-18T17:04:08;-4.40;99.90
9699;DHT22;10089;47.876;8.346;2022-12-18T17:06:40;-4.50;99.90
9699;DHT22;10089;47.876;8.346;2022-12-18T17:09:10;-4.50;99.90
9699;DHT22;10089;47.876;8.346;2022-12-18T17:11:36;-4.50;99.90
9699;DHT22;10089;47.876;8.346;2022-12-18T17:14:08;-4.50;99.90
9699;DHT22;10089;47.876;8.346;2022-12-18T17:16:34;-4.50;99.90
9699;DHT22;10089;47.876;8.346;2022-12-18T17:19:00;-4.50;99.90
9699;DHT22;10089;47.876;8.346;2022-12-18T17:21:26;-4.50;99.90
9699;DHT22;10089;47.876;8.346;2022-12-18T17:23:52;-4.50;99.90
9699;DHT22;10089;47.876;8.346;2022-12-18T17:26:17;-4.60;99.90
9699;DHT22;10089;47.876;8.346;2022-12-18T17:28:43;-4.50;99.90
9699;DHT22;10089;47.876;8.346;2022-12-18T17:31:11;-4.40;99.90
9699;DHT22;10089;47.876;8.346;2022-12-18T17:33:37;-4.50;99.90
9699;DHT22;10089;47.876;8.346;2022-12-18T17:36:03;-4.50;99.90
9699;DHT22;10089;47.876;8.346;2022-12-18T17:38:28;-4.40;99.90
9699;DHT22;10089;47.876;8.346;2022-12-18T17:41:02;-4.30;99.90
9699;DHT22;10089;47.876;8.346;2022-12-18T17:43:28;-4.30;99.90
9699;DHT22;10089;47.876;8.346;2022-12-18T17:45:54;-4.30;99.90
9699;DHT22;10089;47.876;8.346;2022-12-18T17:48:20;-4.30;99.90
9699;DHT22;10089;47.876;8.346;2022-12-18T17:50:46;-4.30;99.90
9699;DHT22;10089;47.876;8.346;2022-12-18T17:53:12;-4.40;99.90
9699;DHT22;10089;47.876;8.346;2022-12-18T17:55:38;-4.30;99.90
9699;DHT22;10089;47.876;8.346;2022-12-18T17:58:04;-4.20;99.90
9699;DHT22;10089;47.876;8.346;2022-12-18T18:00:30;-4.20;99.90
9699;DHT22;10089;47.876;8.346;2022-12-18T18:02:56;-4.40;99.90
9699;DHT22;10089;47.876;8.346;2022-12-18T18:05:21;-4.50;99.90
9699;DHT22;10089;47.876;8.346;2022-12-18T18:07:48;-4.50;99.90
9699;DHT22;10089;47.876;8.346;2022-12-18T18:10:14;-4.50;99.90
9699;DHT22;10089;47.876;8.346;2022-12-18T18:12:40;-4.40;99.90
9699;DHT22;10089;47.876;8.346;2022-12-18T18:15:24;-4.50;99.90
9699;DHT22;10089;47.876;8.346;2022-12-18T18:17:50;-4.50;99.90
9699;DHT22;10089;47.876;8.346;2022-12-18T18:20:15;-4.50;99.90
9699;DHT22;10089;47.876;8.346;2022-12-18T18:22:42;-4.40;99.90
9699;DHT22;10089;47.876;8.346;2022-12-18T18:25:08;-4.50;99.90
9699;DHT22;10089;47.876;8.346;2022-12-18T18:27:34;-4.50;99.90
9699;DHT22;10089;47.876;8.346;2022-12-18T18:30:00;-4.60;99.90
9699;DHT22;10089;47.876;8.346;2022-12-18T18:32:26;-4.60;99.90
9699;DHT22;10089;47.876;8.346;2022-12-18T18:34:51;-4.60;99.90
9699;DHT22;10089;47.876;8.346;2022-12-18T18:37:17;-4.60;99.90
9699;DHT22;10089;47.876;8.346;2022-12-18T18:39:43;-4.70;99.90
9699;DHT22;10089;47.876;8.346;2022-12-18T18:42:09;-4.70;99.90
9699;DHT22;10089;47.876;8.346;2022-12-18T18:44:36;-4.60;99.90
9699;DHT22;10089;47.876;8.346;2022-12-18T18:47:01;-4.60;99.90
9699;DHT22;10089;47.876;8.346;2022-12-18T18:49:27;-4.60;99.90
9699;DHT22;10089;47.876;8.346;2022-12-18T18:51:55;-4.50;99.90
9699;DHT22;10089;47.876;8.346;2022-12-18T18:54:21;-4.60;99.90
9699;DHT22;10089;47.876;8.346;2022-12-18T18:56:50;-4.60;99.90
9699;DHT22;10089;47.876;8.346;2022-12-18T18:59:16;-4.70;99.90
9699;DHT22;10089;47.876;8.346;2022-12-18T19:01:42;-4.60;99.90
9699;DHT22;10089;47.876;8.346;2022-12-18T19:04:08;-4.60;99.90
9699;DHT22;10089;47.876;8.346;2022-12-18T19:06:34;-4.70;99.90
9699;DHT22;10089;47.876;8.346;2022-12-18T19:09:01;-4.70;99.90
9699;DHT22;10089;47.876;8.346;2022-12-18T19:11:28;-4.70;99.90
9699;DHT22;10089;47.876;8.346;2022-12-18T19:14:13;-4.70;99.90
9699;DHT22;10089;47.876;8.346;2022-12-18T19:16:40;-4.60;99.90
9699;DHT22;10089;47.876;8.346;2022-12-18T19:19:06;-4.60;99.90
9699;DHT22;10089;47.876;8.346;2022-12-18T19:21:34;-4.60;99.90
9699;DHT22;10089;47.876;8.346;2022-12-18T19:24:00;-4.50;99.90
9699;DHT22;10089;47.876;8.346;2022-12-18T19:26:27;-4.50;99.90
9699;DHT22;10089;47.876;8.346;2022-12-18T19:29:05;-4.50;99.90
9699;DHT22;10089;47.876;8.346;2022-12-18T19:31:31;-4.60;99.90
9699;DHT22;10089;47.876;8.346;2022-12-18T19:33:58;-4.70;99.90
9699;DHT22;10089;47.876;8.346;2022-12-18T19:36:26;-4.60;99.90
9699;DHT22;10089;47.876;8.346;2022-12-18T19:38:55;-4.70;99.90
9699;DHT22;10089;47.876;8.346;2022-12-18T19:41:22;-4.70;99.90
9699;DHT22;10089;47.876;8.346;2022-12-18T19:43:49;-4.80;99.90
9699;DHT22;10089;47.876;8.346;2022-12-18T19:46:17;-4.70;99.90
9699;DHT22;10089;47.876;8.346;2022-12-18T19:48:43;-4.80;99.90
9699;DHT22;10089;47.876;8.346;2022-12-18T19:51:15;-4.80;99.90
9699;DHT22;10089;47.876;8.346;2022-12-18T19:53:42;-4.80;99.90
9699;DHT22;10089;47.876;8.346;2022-12-18T19:56:11;-4.80;99.90
9699;DHT22;10089;47.876;8.346;2022-12-18T19:58:37;-4.90;99.90
9699;DHT22;10089;47.876;8.346;2022-12-18T20:01:03;-4.80;99.90
9699;DHT22;10089;47.876;8.346;2022-12-18T20:03:29;-4.80;99.90
9699;DHT22;10089;47.876;8.346;2022-12-18T20:06:13;-4.80;99.90
9699;DHT22;10089;47.876;8.346;2022-12-18T20:08:40;-4.80;99.90
9699;DHT22;10089;47.876;8.346;2022-12-18T20:11:06;-4.70;99.90
9699;DHT22;10089;47.876;8.346;2022-12-18T20:13:32;-4.70;99.90
9699;DHT22;10089;47.876;8.346;2022-12-18T20:15:58;-4.60;99.90
9699;DHT22;10089;47.876;8.346;2022-12-18T20:18:24;-4.60;99.90
9699;DHT22;10089;47.876;8.346;2022-12-18T20:20:50;-4.60;99.90
9699;DHT22;10089;47.876;8.346;2022-12-18T20:23:16;-4.70;99.90
9699;DHT22;10089;47.876;8.346;2022-12-18T20:25:42;-4.60;99.90
9699;DHT22;10089;47.876;8.346;2022-12-18T20:28:08;-4.60;99.90
9699;DHT22;10089;47.876;8.346;2022-12-18T20:30:35;-4.50;99.90
9699;DHT22;10089;47.876;8.346;2022-12-18T20:33:01;-4.50;99.90
9699;DHT22;10089;47.876;8.346;2022-12-18T20:35:26;-4.40;99.90
9699;DHT22;10089;47.876;8.346;2022-12-18T20:37:55;-4.50;99.90
9699;DHT22;10089;47.876;8.346;2022-12-18T20:40:22;-4.50;99.90
9699;DHT22;10089;47.876;8.346;2022-12-18T20:42:48;-4.50;99.90
9699;DHT22;10089;47.876;8.346;2022-12-18T20:45:13;-4.50;99.90
9699;DHT22;10089;47.876;8.346;2022-12-18T20:47:39;-4.60;99.90
9699;DHT22;10089;47.876;8.346;2022-12-18T20:50:06;-4.50;99.90
9699;DHT22;10089;47.876;8.346;2022-12-18T20:52:31;-4.50;99.90
9699;DHT22;10089;47.876;8.346;2022-12-18T20:54:57;-4.50;99.90
9699;DHT22;10089;47.876;8.346;2022-12-18T20:57:23;-4.50;99.90
9699;DHT22;10089;47.876;8.346;2022-12-18T20:59:49;-4.50;99.90
9699;DHT22;10089;47.876;8.346;2022-12-18T21:02:15;-4.50;99.90
9699;DHT22;10089;47.876;8.346;2022-12-18T21:04:41;-4.50;99.90
9699;DHT22;10089;47.876;8.346;2022-12-18T21:07:07;-4.50;99.90
9699;DHT22;10089;47.876;8.346;2022-12-18T21:09:33;-4.50;99.90
9699;DHT22;10089;47.876;8.346;2022-12-18T21:11:59;-4.50;99.90
9699;DHT22;10089;47.876;8.346;2022-12-18T21:14:43;-4.50;99.90
9699;DHT22;10089;47.876;8.346;2022-12-18T21:17:09;-4.40;99.90
9699;DHT22;10089;47.876;8.346;2022-12-18T21:19:36;-4.30;99.90
9699;DHT22;10089;47.876;8.346;2022-12-18T21:22:02;-4.30;99.90
9699;DHT22;10089;47.876;8.346;2022-12-18T21:24:28;-4.30;99.90
9699;DHT22;10089;47.876;8.346;2022-12-18T21:26:55;-4.30;99.90
9699;DHT22;10089;47.876;8.346;2022-12-18T21:29:23;-4.20;99.90
9699;DHT22;10089;47.876;8.346;2022-12-18T21:31:51;-4.20;99.90
9699;DHT22;10089;47.876;8.346;2022-12-18T21:34:27;-4.20;99.90
9699;DHT22;10089;47.876;8.346;2022-12-18T21:36:55;-4.20;99.90
9699;DHT22;10089;47.876;8.346;2022-12-18T21:39:22;-4.20;99.90
9699;DHT22;10089;47.876;8.346;2022-12-18T21:41:49;-4.20;99.90
9699;DHT22;10089;47.876;8.346;2022-12-18T21:44:33;-4.10;99.90
9699;DHT22;10089;47.876;8.346;2022-12-18T21:46:59;-4.10;99.90
9699;DHT22;10089;47.876;8.346;2022-12-18T21:49:25;-4.10;99.90
9699;DHT22;10089;47.876;8.346;2022-12-18T21:51:54;-4.00;99.90
9699;DHT22;10089;47.876;8.346;2022-12-18T21:54:20;-4.00;99.90
9699;DHT22;10089;47.876;8.346;2022-12-18T21:57:00;-4.00;99.90
9699;DHT22;10089;47.876;8.346;2022-12-18T21:59:30;-4.00;99.90
9699;DHT22;10089;47.876;8.346;2022-12-18T22:01:59;-4.00;99.90
9699;DHT22;10089;47.876;8.346;2022-12-18T22:04:26;-4.00;99.90
9699;DHT22;10089;47.876;8.346;2022-12-18T22:06:52;-4.10;99.90
9699;DHT22;10089;47.876;8.346;2022-12-18T22:09:20;-4.10;99.90
9699;DHT22;10089;47.876;8.346;2022-12-18T22:11:47;-4.00;99.90
9699;DHT22;10089;47.876;8.346;2022-12-18T22:14:14;-4.00;99.90
9699;DHT22;10089;47.876;8.346;2022-12-18T22:16:41;-3.90;99.90
9699;DHT22;10089;47.876;8.346;2022-12-18T22:19:08;-4.00;99.90
9699;DHT22;10089;47.876;8.346;2022-12-18T22:21:36;-4.00;99.90
9699;DHT22;10089;47.876;8.346;2022-12-18T22:24:05;-3.90;99.90